Flight Track Log - Related Links

Times and Time Zones

All times are in EDT time to prevent confusion due to time zone crossing. See the N373SR flight status page for this flight to view local times or setup timezone preferences in your user account.

Time Position Orientation Groundspeed Altitude Reporting Facility
EDT Latitude Longitude Course Direction KTS MPH feet Rate Location/Type
Thu 02:59:58 PM 35.8942 -78.7919 350° North 109 125 800  Level Washington Center
Thu 03:01:11 PM 35.9358 -78.8014 350° North 119 137 1,900 850 Climbing Washington Center
Thu 03:02:05 PM 35.9647 -78.8050 354° North 119 137 2,600 559 Climbing Washington Center
Thu 03:03:09 PM 36.0000 -78.8167 345° North 132 152 3,000 198 Climbing Washington Center
Thu 03:04:06 PM 36.0381 -78.7978 22° Northeast 148 170 3,000 153 Level Washington Center
Thu 03:05:07 PM 36.0722 -78.7708 33° Northeast 151 174 3,300 393 Climbing Washington Center
Thu 03:06:08 PM 36.1061 -78.7492 27° Northeast 139 160 3,800 698 Climbing Washington Center
Thu 03:07:16 PM 36.1442 -78.7250 27° Northeast 132 152 4,800 891 Climbing Washington Center
Thu 03:08:16 PM 36.1681 -78.6975 43° Northeast 119 137 5,700 843 Climbing Washington Center
Thu 03:09:17 PM 36.1939 -78.6678 43° Northeast 123 142 6,500 835 Climbing Washington Center
Thu 03:10:11 PM 36.2175 -78.6378 46° Northeast 126 145 7,300 818 Climbing Washington Center
Thu 03:11:51 PM 36.2606 -78.5853 45° Northeast 141 162 8,600 634 Climbing Washington Center
Thu 03:12:52 PM 36.2886 -78.5528 43° Northeast 146 168 9,000 198 Climbing Washington Center
Thu 03:13:52 PM 36.3272 -78.5053 45° Northeast 154 177 9,000  Level Washington Center
Thu 03:14:52 PM 36.3594 -78.4653 45° Northeast 169 194 9,000  Level Washington Center
Thu 03:15:52 PM 36.4025 -78.4153 43° Northeast 174 200 9,000  Level Washington Center
Thu 03:16:51 PM 36.4392 -78.3650 48° Northeast 179 206 9,000  Level Washington Center
Thu 03:17:52 PM 36.4775 -78.3222 42° Northeast 179 206 9,000  Level Washington Center
Thu 03:18:50 PM 36.5142 -78.2772 45° Northeast 184 212 9,000  Level Washington Center
Thu 03:19:51 PM 36.5528 -78.2292 45° Northeast 184 212 9,000  Level Washington Center
Thu 03:20:51 PM 36.5911 -78.1842 43° Northeast 184 212 9,000  Level Washington Center
Thu 03:21:52 PM 36.6275 -78.1411 44° Northeast 184 212 9,000  Level Washington Center
Thu 03:22:52 PM 36.6661 -78.0933 45° Northeast 184 212 9,000  Level Washington Center
Thu 03:23:50 PM 36.7006 -78.0503 45° Northeast 184 212 9,000  Level Washington Center
Thu 03:24:52 PM 36.7411 -78.0025 43° Northeast 189 217 9,000  Level Washington Center
Thu 03:25:52 PM 36.7775 -77.9542 47° Northeast 184 212 9,000  Level Washington Center
Thu 03:26:50 PM 36.8139 -77.9086 45° Northeast 184 212 9,000  Level Washington Center
Thu 03:27:50 PM 36.8561 -77.8736 34° Northeast 184 212 9,000  Level Washington Center
Thu 03:28:52 PM 36.8964 -77.8411 33° Northeast 179 206 9,000  Level Washington Center
Thu 03:29:50 PM 36.9325 -77.8056 38° Northeast 179 206 9,000  Level Washington Center
Thu 03:30:50 PM 36.9711 -77.7497 49° Northeast 173 199 9,000  Level Washington Center
Thu 03:31:51 PM 37.0053 -77.7142 40° Northeast 180 207 9,000  Level Washington Center
Thu 03:32:50 PM 37.0539 -77.6739 33° Northeast 186 214 9,000  Level Washington Center
Thu 03:33:50 PM 37.0919 -77.6411 34° Northeast 181 208 9,000  Level Washington Center
Thu 03:36:09 PM 37.2000 -77.5500 34° Northeast 185 213 9,000  Level Potomac TRACON
Thu 03:37:03 PM 37.2333 -77.5167 39° Northeast 184 212 9,000  Level Potomac TRACON
Thu 03:38:04 PM 37.2667 -77.4833 39° Northeast 184 212 9,000  Level Potomac TRACON
Thu 03:39:04 PM 37.3167 -77.4333 38° Northeast 182 209 9,000  Level Potomac TRACON
Thu 03:40:10 PM 37.3667 -77.4000 28° Northeast 183 211 9,000  Level Potomac TRACON
Thu 03:41:10 PM 37.4000 -77.3667 38° Northeast 179 206 9,000  Level Potomac TRACON
Thu 03:42:10 PM 37.4500 -77.3167 38° Northeast 179 206 9,000  Level Potomac TRACON
Thu 03:43:05 PM 37.4833 -77.2833 38° Northeast 205 236 9,000  Level Potomac TRACON
Thu 03:44:05 PM 37.5167 -77.2500 38° Northeast 186 214 9,000  Level Potomac TRACON
Thu 03:45:05 PM 37.5667 -77.2167 28° Northeast 180 207 9,000  Level Potomac TRACON
Thu 03:46:05 PM 37.6000 -77.1833 38° Northeast 183 211 9,000  Level Potomac TRACON
Thu 03:47:05 PM 37.6500 -77.1333 38° Northeast 185 213 9,000  Level Potomac TRACON
Thu 03:47:51 PM 37.6736 -77.1136 33° Northeast 179 206 9,000  Level Washington Center
Thu 03:48:51 PM 37.7114 -77.0775 37° Northeast 189 217 9,000  Level Washington Center
Thu 03:49:52 PM 37.7581 -77.0311 38° Northeast 184 212 9,000  Level Washington Center
Thu 03:50:52 PM 37.7936 -77.0003 34° Northeast 184 212 9,000  Level Washington Center
Thu 03:51:53 PM 37.8403 -76.9539 38° Northeast 184 212 9,000  Level Washington Center
Thu 03:52:50 PM 37.8739 -76.9256 34° Northeast 185 213 9,000  Level Washington Center
Thu 03:53:50 PM 37.9203 -76.8842 35° Northeast 194 223 9,000  Level Washington Center
Thu 03:54:51 PM 37.9561 -76.8481 38° Northeast 183 211 9,000  Level Washington Center
Thu 03:55:51 PM 37.9983 -76.8014 41° Northeast 183 211 9,000  Level Washington Center
Thu 03:56:50 PM 38.0300 -76.7542 50° Northeast 183 211 9,000  Level Washington Center
Thu 03:57:51 PM 38.0678 -76.7100 43° Northeast 183 211 9,000  Level Washington Center
Thu 03:58:51 PM 38.1017 -76.6631 47° Northeast 178 205 9,000  Level Washington Center
Thu 03:59:52 PM 38.1356 -76.6161 47° Northeast 178 205 9,000  Level Washington Center
Thu 04:00:52 PM 38.1714 -76.5664 47° Northeast 183 211 9,000  Level Washington Center
Thu 04:01:53 PM 38.2050 -76.5192 48° Northeast 183 211 9,000  Level Washington Center
Thu 04:02:50 PM 38.2389 -76.4719 48° Northeast 183 211 9,000  Level Washington Center
Thu 04:03:51 PM 38.2725 -76.4247 48° Northeast 183 211 9,000  Level Washington Center
Thu 04:04:51 PM 38.3103 -76.3803 43° Northeast 183 211 9,000  Level Washington Center
Thu 04:05:52 PM 38.3522 -76.3436 34° Northeast 178 205 9,000  Level Washington Center
Thu 04:06:50 PM 38.3964 -76.3017 37° Northeast 178 205 9,000  Level Washington Center
Thu 04:07:50 PM 38.4381 -76.2650 35° Northeast 178 205 9,000  Level Washington Center
Thu 04:08:51 PM 38.4781 -76.2256 38° Northeast 178 205 9,000  Level Washington Center
Thu 04:09:52 PM 38.5200 -76.1861 36° Northeast 178 205 9,000  Level Washington Center
Thu 04:10:52 PM 38.5617 -76.1467 37° Northeast 178 205 9,000  Level Washington Center
Thu 04:11:50 PM 38.6078 -76.0992 39° Northeast 183 211 9,000  Level Washington Center
Thu 04:12:51 PM 38.6497 -76.0569 38° Northeast 183 211 9,000  Level Washington Center
Thu 04:13:50 PM 38.6894 -76.0197 36° Northeast 183 211 9,000 -50 Level Washington Center
Thu 04:14:50 PM 38.7333 -75.9828 33° Northeast 178 205 8,900 -248 Descending Washington Center
Thu 04:15:51 PM 38.7753 -75.9458 34° Northeast 178 205 8,500 -397 Descending Washington Center
Thu 04:16:51 PM 38.8128 -75.9086 38° Northeast 178 205 8,100 -246 Descending Washington Center
Thu 04:17:53 PM 38.8506 -75.8769 33° Northeast 172 198 8,000 -50 Descending Washington Center
Thu 04:18:50 PM 38.8900 -75.8369 38° Northeast 172 198 8,000  Level Washington Center
Thu 04:19:51 PM 38.9319 -75.7997 35° Northeast 177 204 8,000 -197 Level Washington Center
Thu 04:20:52 PM 38.9736 -75.7625 35° Northeast 177 204 7,600 -450 Descending Washington Center
Thu 04:21:51 PM 39.0175 -75.7225 35° Northeast 177 204 7,100 -454 Descending Washington Center
Thu 04:22:51 PM 39.0592 -75.6825 37° Northeast 177 204 6,700 -446 Descending Washington Center
Thu 04:23:52 PM 39.1031 -75.6425 35° Northeast 177 204 6,200 -158 Descending Washington Center
Thu 04:25:00 PM 39.1419 -75.5938 44° Northeast  Level FlightAware Approximate
Thu 04:32:00 PM 39.3620 -75.2677 51° Northeast  Level FlightAware Approximate
Thu 04:32:58 PM 39.3714 -75.2989 49° Northeast 175 201 5,100  Level Washington Center
Thu 04:33:00 PM 39.3900 -75.2178 61° Northeast  Level FlightAware Approximate
Thu 04:34:00 PM 39.4132 -75.1637 61° Northeast  Level FlightAware Approximate
Thu 04:34:00 PM 39.3913 -75.2404 66° East  Level FlightAware Approximate
Thu 04:35:00 PM 39.4375 -75.1105 49° Northeast  Level FlightAware Approximate
Thu 04:36:00 PM 39.4687 -75.0637 49° Northeast  Level FlightAware Approximate
Thu 04:36:58 PM 39.4667 -75.0969 95° East 170 196 5,100  Level Washington Center
Thu 04:37:00 PM 39.5000 -75.0168 49° Northeast  Level FlightAware Approximate
Thu 04:38:00 PM 39.5312 -74.9698 49° Northeast  Level FlightAware Approximate
Thu 04:38:00 PM 39.4940 -75.0436 56° Northeast  Level FlightAware Approximate
Thu 04:41:00 PM 39.6671 -74.9945 57° Northeast  Level Estimated
Thu 04:42:00 PM 39.6631 -74.9326 95° East  Level FlightAware Approximate
Thu 04:45:00 PM 39.6603 -74.7161 52° Northeast  Level FlightAware Approximate
Thu 04:46:00 PM 39.6897 -74.6671 52° Northeast  Level FlightAware Approximate
Thu 04:47:00 PM 39.7170 -74.6161 57° Northeast  Level FlightAware Approximate
Thu 04:48:00 PM 39.7431 -74.5640 57° Northeast  Level FlightAware Approximate
Thu 04:49:00 PM 39.7692 -74.5119 57° Northeast  Level FlightAware Approximate
Thu 04:50:00 PM 39.7952 -74.4597 57° Northeast  Level FlightAware Approximate
Thu 04:51:00 PM 39.8233 -74.4100 37° Northeast  Level FlightAware Approximate
Thu 04:52:00 PM 39.8613 -74.3722 37° Northeast  Level FlightAware Approximate
Thu 04:53:00 PM 39.8993 -74.3343 37° Northeast  Level FlightAware Approximate
Thu 04:54:00 PM 39.9372 -74.2964 37° Northeast  Level FlightAware Approximate
Thu 04:54:44 PM 40.0667 -74.5167 294° West 166 191 5,000  Level New York TRACON
Thu 04:55:00 PM 39.9752 -74.2585 37° Northeast  Level FlightAware Approximate
Thu 04:55:44 PM 40.1167 -74.5000 14° North 174 200 4,800  Level New York TRACON
Thu 04:56:00 PM 40.0131 -74.2205 37° Northeast  Level FlightAware Approximate
Thu 04:56:44 PM 40.1667 -74.5000 360° North 180 207 4,300  Level New York TRACON
Thu 04:57:00 PM 40.0510 -74.1824 38° Northeast  Level FlightAware Approximate
Thu 04:57:44 PM 40.2167 -74.5000 360° North 175 201 4,000  Level New York TRACON
Thu 04:58:00 PM 40.0872 -74.1578 303° West  Level FlightAware Approximate
Thu 04:58:44 PM 40.2500 -74.5000 360° North 167 192 4,000  Level New York TRACON
Thu 04:59:00 PM 40.1098 -74.2126 294° West  Level FlightAware Approximate
Thu 04:59:44 PM 40.2833 -74.5333 323° Northwest 187 215 4,000  Level New York TRACON
Thu 05:00:00 PM 40.1290 -74.2699 294° West  Level FlightAware Approximate
Thu 05:00:44 PM 40.2833 -74.6000 270° West 182 209 4,000  Level New York TRACON
Thu 05:01:44 PM 40.3167 -74.6500 311° West 168 193 4,000  Level New York TRACON
Thu 05:02:45 PM 40.3500 -74.6833 323° Northwest 168 193 4,000  Level New York TRACON
Thu 05:03:45 PM 40.4000 -74.6833 360° North 166 191 4,000  Level New York TRACON
Thu 05:04:45 PM 40.4500 -74.7000 346° North 165 190 4,000  Level New York TRACON
Thu 05:05:51 PM 40.4833 -74.7167 339° North 160 184 4,000  Level New York TRACON
Thu 05:06:51 PM 40.5333 -74.7333 346° North 165 190 4,000  Level New York TRACON
Thu 05:07:45 PM 40.5833 -74.7333 360° North 163 188 4,000  Level New York TRACON
Thu 05:08:45 PM 40.6167 -74.7167 21° North 165 190 4,000  Level New York TRACON
Thu 05:09:45 PM 40.6667 -74.7167 360° North 160 184 4,000  Level New York TRACON
Thu 05:10:45 PM 40.7000 -74.7000 21° North 163 188 4,000  Level New York TRACON
Thu 05:11:45 PM 40.7333 -74.6667 37° Northeast 160 184 4,000  Level New York TRACON
Thu 05:12:46 PM 40.7667 -74.6167 49° Northeast 160 184 4,000  Level New York TRACON
Thu 05:13:46 PM 40.8000 -74.5833 37° Northeast 162 186 4,000  Level New York TRACON
Thu 05:14:46 PM 40.8333 -74.5333 49° Northeast 158 182 4,000 -50 Level New York TRACON
Thu 05:15:46 PM 40.8667 -74.5000 37° Northeast 157 181 3,900 -300 Descending New York TRACON
Thu 05:16:46 PM 40.9000 -74.4500 49° Northeast 167 192 3,400 -450 Descending New York TRACON
Thu 05:17:46 PM 40.9333 -74.4167 37° Northeast 168 193 3,000 -200 Descending New York TRACON
Thu 05:18:46 PM 40.9667 -74.3833 37° Northeast 154 177 3,000  Level New York TRACON
Thu 05:19:46 PM 41.0000 -74.3333 49° Northeast 152 175 3,000  Level New York TRACON
Thu 05:20:46 PM 41.0333 -74.3000 37° Northeast 152 175 3,000  Level New York TRACON
Thu 05:21:40 PM 41.0500 -74.2667 56° Northeast 151 174 3,000  Level New York TRACON
Thu 05:22:46 PM 41.0833 -74.2167 48° Northeast 153 176 3,000  Level New York TRACON
Thu 05:23:41 PM 41.1167 -74.1833 37° Northeast 149 171 3,000  Level New York TRACON
Thu 05:24:41 PM 41.1500 -74.1500 37° Northeast 149 171 3,000  Level New York TRACON
Thu 05:25:46 PM 41.1500 -74.0833 90° East 158 182 3,000  Level New York TRACON
Thu 05:26:46 PM 41.1333 -74.0333 114° Southeast 158 182 3,000 -50 Level New York TRACON
Thu 05:27:46 PM 41.1000 -73.9833 131° Southeast 166 191 2,900 -250 Descending New York TRACON
Thu 05:28:46 PM 41.0667 -73.9333 131° Southeast 178 205 2,500 -429 Descending New York TRACON
Thu 05:29:52 PM 41.0333 -73.8833 131° Southeast 174 200 2,000 -248 Descending New York TRACON
Thu 05:30:47 PM 41.0167 -73.8500 124° Southeast 166 191 2,000  Level New York TRACON
Thu 05:31:47 PM 40.9833 -73.8000 131° Southeast 163 188 2,000  Level New York TRACON
Thu 05:32:47 PM 40.9500 -73.7667 143° Southeast 162 186 2,000  Level New York TRACON
Thu 05:33:46 PM 40.9333 -73.7167 114° Southeast 158 182 2,000  Level New York TRACON
Thu 05:34:47 PM 40.9500 -73.6667 66° East 141 162 2,000  Level New York TRACON
Thu 05:35:52 PM 40.9833 -73.6500 21° North 124 143 2,000  Level New York TRACON
Thu 05:36:47 PM 41.0167 -73.6667 339° North 95 109 2,000 -300 Level New York TRACON
Thu 05:37:52 PM 41.0333 -73.6833 323° Northwest 98 113 1,400 -554 Descending New York TRACON
Thu 05:39:00 PM 41.0667 -73.7000 348° North  Level FlightAware Approximate
Thu 05:46:00 PM 41.0669 -73.7076 348° North  Level Estimated
Thu 05:47:00 PM 41.0667 -73.7000 348° North  Level FlightAware Approximate

Login

Don't have an account? Register now (free) for customized features, flight alerts, and more!